New Harbor, ME

43° 52' 34"N, 69° 29' 40"W, Elevation 65 ft.
Eastern Time

Hourly observations for the last 72 hours

Date Time Temperature (°F) Humi-
dity

(%)
Wind
(mph)
Pressure Rain (in) Sun
(W/m2)
ET
(in)
Air Dew 6 Hour 1 Hr 3 Hr 6 Hr Day
Alt
(in)
Sea
Level

(mb)
Max Min
22 22:00 54.9 53.2 94 ESE 2 G 3 30.40 1029.6 0.00 0 0.053
22 21:00 54.3 51.1 89 ENE 3 G 7 30.41 1029.8 0.00 0 0.052
22 20:00 53.4 49.9 62.2 52.8 88 ENE 3 G 8 30.41 1029.7 0.00 0 0.051
22 19:00 52.9 48.8 86 ENE 3 G 10 30.41 1029.8 0.00 0 0.050
22 18:00 53.1 48.7 85 ENE 5 G 9 30.41 1029.9 0.00 0 0.049
22 17:00 54.4 49.3 83 ENE 3 G 11 30.42 1030.2 0.00 19 0.047
22 16:00 55.5 49.4 80 ENE 3 G 11 30.42 1030.2 0.00 86 0.045
22 15:00 56.2 48.7 76 ENE 6 G 13 30.42 1030.1 0.00 74 0.040
22 14:00 62.2 51.9 63.1 52.9 69 ENE 2 G 8 30.42 1030.2 0.00 425 0.031
22 13:00 60.4 52.1 74 ENE 4 G 12 30.43 1030.4 0.00 336 0.020
22 12:00 62.7 53.2 71 ENE 4 G 11 30.43 1030.6 0.00 246 0.010
22 11:00 57.5 53.0 85 E 1 G 12 30.43 1030.5 0.00 543 0.004
22 10:00 56.0 52.2 87 ENE 8 G 12 30.42 1030.3 0.00 135 0.002
22 09:00 54.1 52.1 93 ENE 7 G 10 30.42 1030.1 0.00 74 0.000
22 08:00 52.9 52.1 52.9 48.1 97 ENE 5 G 8 30.39 1029.2 0.00 39 0.000
22 07:00 51.9 51.1 97 ENE 4 G 10 30.36 1028.2 0.00 0 0.000
22 06:00 51.2 50.4 97 ENE 2 G 4 30.34 1027.6 0.00 0 0.000
22 05:00 50.3 49.8 98 ENE 3 G 7 30.33 1027.3 0.00 0 0.000
22 04:00 48.3 47.5 97 ENE 1 G 2 30.32 1026.9 0.00 0 0.000
22 03:00 48.5 48.0 98 NE 2 G 4 30.31 1026.3 0.00 0 0.000
22 02:00 48.4 47.6 50.6 48.4 97 SE 1 G 2 30.29 1025.9 0.00 0 0.000
22 01:00 48.8 48.0 97 SE 1 G 2 30.28 1025.6 0.00 0 0.000
22 00:00 49.5 48.4 96 SE 0 G 1 30.28 1025.5 0.00 0 0.051
21 23:00 50.2 49.4 97 Calm 30.28 1025.3 0.00 0 0.051
21 22:00 50.5 49.4 96 Calm 30.28 1025.3 0.00 0 0.051
21 21:00 49.6 48.2 95 SE 0 G 2 30.26 1024.8 0.00 0 0.051
21 20:00 50.3 48.6 67.1 50.3 94 SE 0 G 2 30.26 1024.7 0.00 0 0.051
21 19:00 52.2 49.9 92 SSE 1 G 1 30.25 1024.3 0.00 0 0.051
21 18:00 55.4 51.3 86 SSE 0 G 1 30.24 1023.9 0.00 0 0.051
21 17:00 59.8 52.9 78 SSE 1 G 5 30.23 1023.7 0.00 33 0.048
21 16:00 63.8 55.0 73 S 2 G 5 30.21 1023.2 0.00 230 0.044
21 15:00 61.2 53.2 75 S 4 G 6 30.22 1023.3 0.00 54 0.037
21 14:00 67.1 53.7 68.4 44.5 62 SSE 3 G 7 30.21 1023.1 0.00 480 0.025
21 13:00 66.0 54.3 66 ESE 1 G 2 30.21 1023.2 0.00 311 0.017
21 12:00 65.0 53.8 67 ENE 1 G 2 30.22 1023.3 0.00 193 0.008
21 11:00 58.9 53.4 82 S 1 G 3 30.22 1023.5 0.00 475 0.003
21 10:00 54.6 50.2 85 ENE 1 G 3 30.23 1023.6 0.00 51 0.002
21 09:00 50.4 46.4 86 SE 0 G 2 30.22 1023.3 0.00 37 0.001
21 08:00 44.5 42.0 44.5 43.5 91 WNW 1 G 2 30.20 1022.7 0.00 25 0.001
21 07:00 44.0 41.3 90 W 1 G 2 30.18 1022.0 0.00 0 0.001
21 06:00 43.7 41.0 90 WNW 1 G 3 30.17 1021.6 0.00 0 0.001
21 05:00 43.8 41.1 90 NW 1 G 2 30.15 1021.1 0.00 0 0.001
21 04:00 44.2 41.5 90 NW 2 G 2 30.13 1020.4 0.00 0 0.001
21 03:00 44.3 40.7 87 NNW 1 G 2 30.12 1019.9 0.00 0 0.001
21 02:00 44.3 39.8 55.1 44.3 84 NNW 1 G 1 30.12 1019.9 0.00 0 0.001
21 01:00 45.5 40.0 81 N 1 G 3 30.10 1019.4 0.00 0 0.000
21 00:00 47.1 40.3 77 NE 0 G 1 30.09 1018.9 0.00 0 0.087
20 23:00 50.1 40.3 69 N 1 G 2 30.07 1018.2 0.00 0 0.086
20 22:00 54.0 40.9 61 ENE 2 G 5 30.04 1017.2 0.00 0 0.085
20 21:00 52.6 40.8 64 NNW 2 G 4 30.02 1016.8 0.00 0 0.084
20 20:00 55.0 41.8 69.1 55.0 61 N 2 G 4 29.99 1015.6 0.00 0 0.082
20 19:00 59.4 40.8 50 N 2 G 5 29.97 1015.0 0.00 0 0.080
20 18:00 61.1 43.4 52 NNW 2 G 5 29.94 1013.9 0.00 0 0.078
20 17:00 65.8 41.5 41 W 1 G 9 29.91 1012.8 0.00 23 0.073
20 16:00 68.6 44.0 41 NW 2 G 12 29.90 1012.6 0.00 241 0.065
20 15:00 67.0 41.9 40 WNW 4 G 13 29.89 1012.3 0.00 60 0.055
20 14:00 68.2 41.6 68.4 46.8 38 NW 7 G 14 29.89 1012.3 0.00 506 0.041
20 13:00 68.0 41.5 38 NW 3 G 14 29.92 1013.2 0.00 501 0.027
20 12:00 67.4 40.2 37 WSW 5 G 11 29.93 1013.7 0.00 448 0.014
20 11:00 63.2 40.3 43 NNW 5 G 11 29.95 1014.4 0.00 510 0.007
20 10:00 59.6 41.5 51 NNW 5 G 13 29.96 1014.7 0.00 40 0.005
20 09:00 53.7 46.3 76 NW 2 G 7 29.95 1014.4 0.00 32 0.004
20 08:00 46.8 45.2 56.1 46.5 94 N 2 G 3 29.94 1013.8 0.00 21 0.004
20 07:00 47.2 45.0 92 WNW 1 G 3 29.92 1013.2 0.00 0 0.004
20 06:00 49.1 46.3 90 N 1 G 4 29.90 1012.5 0.00 0 0.004
20 05:00 50.6 47.5 89 WSW 1 G 2 29.89 1012.1 0.00 0 0.004
20 04:00 52.1 48.0 86 N 1 G 2 29.87 1011.6 0.00 0 0.003
20 03:00 54.3 48.9 82 WSW 2 G 3 29.87 1011.5 0.00 0 0.002
20 02:00 56.0 50.3 58.4 56.0 81 SW 1 G 6 29.88 1012.0 0.00 0 0.001
20 01:00 56.9 51.1 81 SSW 3 G 12 29.87 1011.6 0.00 0 0.000
20 00:00 57.4 51.6 81 SSW 4 G 12 29.87 1011.6 0.00 0 0.066
19 23:00 57.7 52.2 82 SSW 4 G 7 29.88 1012.0 0.00 0 0.065

Data generated by WxSolution Version 1.9.0.6, Build 2017.01.14.